Hornersville, Missouri
Current Conditions -  °F | °C
As of 3:53 PM on Tuesday 21 Oct 2014 (Local Time) from KHKA Reporting Station
Clear Clear  
Wind Chill: 78°   Ceiling: Unl
Heat Index: 78°   Visibility: 10mi
Dew Point: 46°   Wind: 12mph
Humidity: 32%   Direction: 350°N
Pressure: 30.05"   Gusts: NA
Location:  36.04°N, 90.11°W
Report Text: KHKA 212053Z AUTO 35010KT 10SM CLR 26/08 A3005 RMK AO2 SLP176 T02560078 56014
Loading
Personal Weather Stations






























Interactive Weather Map
Tropical Storm Tracking
New forecast layout! Learn more

10-Day Weather Forecast

Advertisements
Track Severe Weather on mobile